Huachuca City, Arizona
Current Conditions -  °F | °C
As of 8:55 PM on Wednesday 17 Dec 2014 (Local Time) from KFHU Reporting Station
Broken Clouds Broken Clouds  
Wind Chill: 45°   Ceiling: 5000
Heat Index: 48°   Visibility: 10mi
Dew Point: 46°   Wind: 7mph
Humidity: 93%   Direction: 210°SSW
Pressure: 30.14"   Gusts: NA
Location:  31.63°N, 110.33°W
Report Text: KFHU 180355Z 21006KT 10SM SCT036 BKN050 09/08 A3014 RMK SLP191
Loading
Personal Weather Stations






























Interactive Weather Map New forecast layout! Learn more

10-Day Weather Forecast

Advertisements
Track Severe Weather on mobile